sensor_id;sensor_type;location;lat;lon;timestamp;temperature;humidity
2130;DHT22;1071;52.544;13.374;2023-05-10T00:01:46;15.10;73.50
2130;DHT22;1071;52.544;13.374;2023-05-10T00:04:13;15.00;73.50
2130;DHT22;1071;52.544;13.374;2023-05-10T00:06:40;14.90;73.70
2130;DHT22;1071;52.544;13.374;2023-05-10T00:09:07;14.90;74.00
2130;DHT22;1071;52.544;13.374;2023-05-10T00:11:37;14.80;74.10
2130;DHT22;1071;52.544;13.374;2023-05-10T00:14:05;14.90;74.40
2130;DHT22;1071;52.544;13.374;2023-05-10T00:16:37;14.80;74.30
2130;DHT22;1071;52.544;13.374;2023-05-10T00:19:06;14.80;74.50
2130;DHT22;1071;52.544;13.374;2023-05-10T00:21:33;14.80;74.60
2130;DHT22;1071;52.544;13.374;2023-05-10T00:24:00;14.80;74.90
2130;DHT22;1071;52.544;13.374;2023-05-10T00:26:27;14.80;75.10
2130;DHT22;1071;52.544;13.374;2023-05-10T00:28:54;14.80;74.90
2130;DHT22;1071;52.544;13.374;2023-05-10T00:34:10;14.80;75.10
2130;DHT22;1071;52.544;13.374;2023-05-10T00:36:37;14.70;75.40
2130;DHT22;1071;52.544;13.374;2023-05-10T00:39:04;14.70;75.40
2130;DHT22;1071;52.544;13.374;2023-05-10T00:41:33;14.70;75.50
2130;DHT22;1071;52.544;13.374;2023-05-10T00:44:00;14.70;75.60
2130;DHT22;1071;52.544;13.374;2023-05-10T00:46:27;14.70;75.70
2130;DHT22;1071;52.544;13.374;2023-05-10T00:48:55;14.60;75.70
2130;DHT22;1071;52.544;13.374;2023-05-10T00:51:23;14.60;75.90
2130;DHT22;1071;52.544;13.374;2023-05-10T00:53:51;14.50;75.80
2130;DHT22;1071;52.544;13.374;2023-05-10T00:56:18;14.50;76.10
2130;DHT22;1071;52.544;13.374;2023-05-10T00:58:46;14.40;76.10
2130;DHT22;1071;52.544;13.374;2023-05-10T01:01:16;14.30;76.50
2130;DHT22;1071;52.544;13.374;2023-05-10T01:03:46;14.30;76.90
2130;DHT22;1071;52.544;13.374;2023-05-10T01:06:13;14.20;77.00
2130;DHT22;1071;52.544;13.374;2023-05-10T01:08:42;14.20;77.30
2130;DHT22;1071;52.544;13.374;2023-05-10T01:11:09;14.20;77.50
2130;DHT22;1071;52.544;13.374;2023-05-10T01:13:39;14.10;77.60
2130;DHT22;1071;52.544;13.374;2023-05-10T01:16:07;14.10;77.90
2130;DHT22;1071;52.544;13.374;2023-05-10T01:18:38;14.10;77.70
2130;DHT22;1071;52.544;13.374;2023-05-10T01:21:16;14.10;77.80
2130;DHT22;1071;52.544;13.374;2023-05-10T01:27:23;14.00;78.70
2130;DHT22;1071;52.544;13.374;2023-05-10T01:30:15;14.00;78.60
2130;DHT22;1071;52.544;13.374;2023-05-10T01:32:52;14.00;78.60
2130;DHT22;1071;52.544;13.374;2023-05-10T01:35:29;14.00;78.80
2130;DHT22;1071;52.544;13.374;2023-05-10T01:38:04;13.90;79.00
2130;DHT22;1071;52.544;13.374;2023-05-10T01:40:39;13.90;79.30
2130;DHT22;1071;52.544;13.374;2023-05-10T01:43:17;13.80;79.50
2130;DHT22;1071;52.544;13.374;2023-05-10T01:45:54;13.90;79.70
2130;DHT22;1071;52.544;13.374;2023-05-10T01:48:27;13.80;79.80
2130;DHT22;1071;52.544;13.374;2023-05-10T01:50:56;13.80;80.90
2130;DHT22;1071;52.544;13.374;2023-05-10T01:53:24;13.70;80.20
2130;DHT22;1071;52.544;13.374;2023-05-10T01:55:52;13.70;80.70
2130;DHT22;1071;52.544;13.374;2023-05-10T01:58:22;13.70;80.60
2130;DHT22;1071;52.544;13.374;2023-05-10T02:00:52;13.70;80.90
2130;DHT22;1071;52.544;13.374;2023-05-10T02:03:23;13.60;81.00
2130;DHT22;1071;52.544;13.374;2023-05-10T02:05:52;13.50;81.20
2130;DHT22;1071;52.544;13.374;2023-05-10T02:08:22;13.50;81.60
2130;DHT22;1071;52.544;13.374;2023-05-10T02:10:51;13.50;81.70
2130;DHT22;1071;52.544;13.374;2023-05-10T02:13:19;13.50;82.10
2130;DHT22;1071;52.544;13.374;2023-05-10T02:15:54;13.50;82.20
2130;DHT22;1071;52.544;13.374;2023-05-10T02:18:25;13.40;82.30
2130;DHT22;1071;52.544;13.374;2023-05-10T02:20:55;13.40;82.50
2130;DHT22;1071;52.544;13.374;2023-05-10T02:23:23;13.40;82.60
2130;DHT22;1071;52.544;13.374;2023-05-10T02:25:52;13.40;82.70
2130;DHT22;1071;52.544;13.374;2023-05-10T02:28:21;13.40;82.70
2130;DHT22;1071;52.544;13.374;2023-05-10T02:30:49;13.40;82.90
2130;DHT22;1071;52.544;13.374;2023-05-10T02:33:17;13.40;83.10
2130;DHT22;1071;52.544;13.374;2023-05-10T02:35:45;13.30;83.10
2130;DHT22;1071;52.544;13.374;2023-05-10T02:38:14;13.30;83.10
2130;DHT22;1071;52.544;13.374;2023-05-10T02:40:41;13.30;83.30
2130;DHT22;1071;52.544;13.374;2023-05-10T02:43:12;13.30;83.30
2130;DHT22;1071;52.544;13.374;2023-05-10T02:45:42;13.30;83.40
2130;DHT22;1071;52.544;13.374;2023-05-10T02:48:10;13.30;83.50
2130;DHT22;1071;52.544;13.374;2023-05-10T02:50:37;13.30;83.50
2130;DHT22;1071;52.544;13.374;2023-05-10T02:53:10;13.20;83.70
2130;DHT22;1071;52.544;13.374;2023-05-10T02:55:41;13.20;83.80
2130;DHT22;1071;52.544;13.374;2023-05-10T02:58:16;13.20;84.10
2130;DHT22;1071;52.544;13.374;2023-05-10T03:00:44;13.10;84.10
2130;DHT22;1071;52.544;13.374;2023-05-10T03:03:11;13.10;84.30
2130;DHT22;1071;52.544;13.374;2023-05-10T03:05:38;13.10;84.30
2130;DHT22;1071;52.544;13.374;2023-05-10T03:08:05;13.00;84.30
2130;DHT22;1071;52.544;13.374;2023-05-10T03:10:33;13.00;84.50
2130;DHT22;1071;52.544;13.374;2023-05-10T03:13:15;13.00;84.70
2130;DHT22;1071;52.544;13.374;2023-05-10T03:15:50;12.90;84.60
2130;DHT22;1071;52.544;13.374;2023-05-10T03:18:22;12.90;84.90
2130;DHT22;1071;52.544;13.374;2023-05-10T03:20:52;12.90;85.00
2130;DHT22;1071;52.544;13.374;2023-05-10T03:23:24;12.90;85.10
2130;DHT22;1071;52.544;13.374;2023-05-10T03:25:54;12.90;85.20
2130;DHT22;1071;52.544;13.374;2023-05-10T03:28:25;12.90;85.30
2130;DHT22;1071;52.544;13.374;2023-05-10T03:30:52;12.90;85.20
2130;DHT22;1071;52.544;13.374;2023-05-10T03:33:20;12.90;85.20
2130;DHT22;1071;52.544;13.374;2023-05-10T03:35:47;12.90;85.30
2130;DHT22;1071;52.544;13.374;2023-05-10T03:38:15;12.80;85.40
2130;DHT22;1071;52.544;13.374;2023-05-10T03:40:41;12.80;85.40
2130;DHT22;1071;52.544;13.374;2023-05-10T03:43:08;12.80;85.50
2130;DHT22;1071;52.544;13.374;2023-05-10T03:45:37;12.80;85.40
2130;DHT22;1071;52.544;13.374;2023-05-10T03:48:04;12.90;85.60
2130;DHT22;1071;52.544;13.374;2023-05-10T03:50:31;12.80;85.50
2130;DHT22;1071;52.544;13.374;2023-05-10T03:52:58;12.90;85.70
2130;DHT22;1071;52.544;13.374;2023-05-10T03:55:25;12.90;85.70
2130;DHT22;1071;52.544;13.374;2023-05-10T03:57:52;12.80;85.60
2130;DHT22;1071;52.544;13.374;2023-05-10T04:00:19;12.80;85.80
2130;DHT22;1071;52.544;13.374;2023-05-10T04:02:48;12.80;85.90
2130;DHT22;1071;52.544;13.374;2023-05-10T04:05:17;12.80;85.90
2130;DHT22;1071;52.544;13.374;2023-05-10T04:07:45;12.80;86.00
2130;DHT22;1071;52.544;13.374;2023-05-10T04:10:14;12.70;85.90
2130;DHT22;1071;52.544;13.374;2023-05-10T04:12:42;12.70;86.00
2130;DHT22;1071;52.544;13.374;2023-05-10T04:15:10;12.70;86.30
2130;DHT22;1071;52.544;13.374;2023-05-10T04:17:36;12.60;86.50
2130;DHT22;1071;52.544;13.374;2023-05-10T04:20:06;12.60;86.80
2130;DHT22;1071;52.544;13.374;2023-05-10T04:22:33;12.60;86.70
2130;DHT22;1071;52.544;13.374;2023-05-10T04:25:00;12.60;87.50
2130;DHT22;1071;52.544;13.374;2023-05-10T04:27:27;12.60;86.80
2130;DHT22;1071;52.544;13.374;2023-05-10T04:29:54;12.60;86.70
2130;DHT22;1071;52.544;13.374;2023-05-10T04:32:21;12.60;86.80
2130;DHT22;1071;52.544;13.374;2023-05-10T04:34:48;12.70;86.90
2130;DHT22;1071;52.544;13.374;2023-05-10T04:37:17;12.70;86.70
2130;DHT22;1071;52.544;13.374;2023-05-10T04:39:44;12.80;86.90
2130;DHT22;1071;52.544;13.374;2023-05-10T04:42:11;12.80;86.90
2130;DHT22;1071;52.544;13.374;2023-05-10T04:44:45;12.80;86.70
2130;DHT22;1071;52.544;13.374;2023-05-10T04:47:12;12.80;87.60
2130;DHT22;1071;52.544;13.374;2023-05-10T04:49:39;12.90;86.70
2130;DHT22;1071;52.544;13.374;2023-05-10T04:52:06;12.90;86.60
2130;DHT22;1071;52.544;13.374;2023-05-10T04:54:34;12.90;86.70
2130;DHT22;1071;52.544;13.374;2023-05-10T04:57:01;12.90;86.70
2130;DHT22;1071;52.544;13.374;2023-05-10T04:59:28;13.00;86.70
2130;DHT22;1071;52.544;13.374;2023-05-10T05:01:55;13.10;86.60
2130;DHT22;1071;52.544;13.374;2023-05-10T05:04:21;13.20;86.50
2130;DHT22;1071;52.544;13.374;2023-05-10T05:06:49;13.20;86.50
2130;DHT22;1071;52.544;13.374;2023-05-10T05:09:16;13.30;86.20
2130;DHT22;1071;52.544;13.374;2023-05-10T05:11:47;13.30;87.00
2130;DHT22;1071;52.544;13.374;2023-05-10T05:14:14;13.40;86.30
2130;DHT22;1071;52.544;13.374;2023-05-10T05:16:41;13.40;86.00
2130;DHT22;1071;52.544;13.374;2023-05-10T05:19:13;13.60;86.00
2130;DHT22;1071;52.544;13.374;2023-05-10T05:21:50;13.60;85.70
2130;DHT22;1071;52.544;13.374;2023-05-10T05:24:20;13.70;85.80
2130;DHT22;1071;52.544;13.374;2023-05-10T05:26:48;13.70;86.10
2130;DHT22;1071;52.544;13.374;2023-05-10T05:29:15;13.90;86.40
2130;DHT22;1071;52.544;13.374;2023-05-10T05:31:42;13.90;85.70
2130;DHT22;1071;52.544;13.374;2023-05-10T05:34:08;14.00;85.60
2130;DHT22;1071;52.544;13.374;2023-05-10T05:36:36;14.00;85.30
2130;DHT22;1071;52.544;13.374;2023-05-10T05:39:04;14.10;85.20
2130;DHT22;1071;52.544;13.374;2023-05-10T05:41:30;14.10;84.90
2130;DHT22;1071;52.544;13.374;2023-05-10T05:43:59;14.20;84.90
2130;DHT22;1071;52.544;13.374;2023-05-10T05:46:26;14.30;84.80
2130;DHT22;1071;52.544;13.374;2023-05-10T05:48:53;14.40;84.70
2130;DHT22;1071;52.544;13.374;2023-05-10T05:51:20;14.50;84.50
2130;DHT22;1071;52.544;13.374;2023-05-10T05:53:47;14.60;84.20
2130;DHT22;1071;52.544;13.374;2023-05-10T05:56:14;14.60;83.90
2130;DHT22;1071;52.544;13.374;2023-05-10T05:58:42;14.70;83.80
2130;DHT22;1071;52.544;13.374;2023-05-10T06:01:11;14.80;83.50
2130;DHT22;1071;52.544;13.374;2023-05-10T06:03:38;14.80;83.30
2130;DHT22;1071;52.544;13.374;2023-05-10T06:06:05;14.90;83.10
2130;DHT22;1071;52.544;13.374;2023-05-10T06:08:32;15.00;83.30
2130;DHT22;1071;52.544;13.374;2023-05-10T06:10:59;15.10;83.20
2130;DHT22;1071;52.544;13.374;2023-05-10T06:13:26;15.20;83.10
2130;DHT22;1071;52.544;13.374;2023-05-10T06:15:57;15.30;83.10
2130;DHT22;1071;52.544;13.374;2023-05-10T06:18:27;15.40;82.60
2130;DHT22;1071;52.544;13.374;2023-05-10T06:20:54;15.50;82.20
2130;DHT22;1071;52.544;13.374;2023-05-10T06:23:21;15.60;81.60
2130;DHT22;1071;52.544;13.374;2023-05-10T06:25:48;15.70;81.00
2130;DHT22;1071;52.544;13.374;2023-05-10T06:28:15;15.70;81.30
2130;DHT22;1071;52.544;13.374;2023-05-10T06:30:42;15.80;80.90
2130;DHT22;1071;52.544;13.374;2023-05-10T06:33:10;15.90;81.00
2130;DHT22;1071;52.544;13.374;2023-05-10T06:35:38;16.00;80.70
2130;DHT22;1071;52.544;13.374;2023-05-10T06:38:05;16.00;80.20
2130;DHT22;1071;52.544;13.374;2023-05-10T06:40:32;16.20;80.20
2130;DHT22;1071;52.544;13.374;2023-05-10T06:42:59;16.30;79.80
2130;DHT22;1071;52.544;13.374;2023-05-10T06:45:26;16.30;79.40
2130;DHT22;1071;52.544;13.374;2023-05-10T06:47:53;16.50;79.70
2130;DHT22;1071;52.544;13.374;2023-05-10T06:50:20;16.70;79.70
2130;DHT22;1071;52.544;13.374;2023-05-10T06:52:48;16.80;78.70
2130;DHT22;1071;52.544;13.374;2023-05-10T06:55:15;16.80;78.40
2130;DHT22;1071;52.544;13.374;2023-05-10T06:57:42;16.90;78.50
2130;DHT22;1071;52.544;13.374;2023-05-10T07:00:13;16.90;78.30
2130;DHT22;1071;52.544;13.374;2023-05-10T07:02:50;17.00;78.20
2130;DHT22;1071;52.544;13.374;2023-05-10T07:05:17;17.10;78.20
2130;DHT22;1071;52.544;13.374;2023-05-10T07:07:45;17.20;77.80
2130;DHT22;1071;52.544;13.374;2023-05-10T07:10:13;17.20;77.70
2130;DHT22;1071;52.544;13.374;2023-05-10T07:12:40;17.20;77.40
2130;DHT22;1071;52.544;13.374;2023-05-10T07:15:08;17.40;77.60
2130;DHT22;1071;52.544;13.374;2023-05-10T07:17:35;17.50;77.40
2130;DHT22;1071;52.544;13.374;2023-05-10T07:20:03;17.70;76.90
2130;DHT22;1071;52.544;13.374;2023-05-10T07:22:30;17.80;76.10
2130;DHT22;1071;52.544;13.374;2023-05-10T07:24:57;18.10;76.20
2130;DHT22;1071;52.544;13.374;2023-05-10T07:27:25;18.30;75.60
2130;DHT22;1071;52.544;13.374;2023-05-10T07:29:52;18.50;75.50
2130;DHT22;1071;52.544;13.374;2023-05-10T07:32:20;18.80;75.40
2130;DHT22;1071;52.544;13.374;2023-05-10T07:34:46;18.90;74.50
2130;DHT22;1071;52.544;13.374;2023-05-10T07:37:13;19.00;73.00
2130;DHT22;1071;52.544;13.374;2023-05-10T07:39:40;19.10;72.80
2130;DHT22;1071;52.544;13.374;2023-05-10T07:42:07;19.10;72.80
2130;DHT22;1071;52.544;13.374;2023-05-10T07:44:36;19.30;73.00
2130;DHT22;1071;52.544;13.374;2023-05-10T07:47:02;19.30;72.20
2130;DHT22;1071;52.544;13.374;2023-05-10T07:49:29;19.40;72.10
2130;DHT22;1071;52.544;13.374;2023-05-10T07:51:56;19.50;72.30
2130;DHT22;1071;52.544;13.374;2023-05-10T07:54:23;19.60;72.10
2130;DHT22;1071;52.544;13.374;2023-05-10T07:56:50;19.70;71.70
2130;DHT22;1071;52.544;13.374;2023-05-10T07:59:18;19.60;71.50
2130;DHT22;1071;52.544;13.374;2023-05-10T08:01:47;19.60;71.20
2130;DHT22;1071;52.544;13.374;2023-05-10T08:04:13;19.60;71.40
2130;DHT22;1071;52.544;13.374;2023-05-10T08:06:40;19.60;71.50
2130;DHT22;1071;52.544;13.374;2023-05-10T08:09:08;19.70;71.40
2130;DHT22;1071;52.544;13.374;2023-05-10T08:11:35;19.80;70.90
2130;DHT22;1071;52.544;13.374;2023-05-10T08:14:02;19.80;70.00
2130;DHT22;1071;52.544;13.374;2023-05-10T08:16:29;19.80;70.30
2130;DHT22;1071;52.544;13.374;2023-05-10T08:18:57;19.90;70.40
2130;DHT22;1071;52.544;13.374;2023-05-10T08:21:24;20.00;70.90
2130;DHT22;1071;52.544;13.374;2023-05-10T08:23:51;20.00;70.30
2130;DHT22;1071;52.544;13.374;2023-05-10T08:26:18;20.10;70.30
2130;DHT22;1071;52.544;13.374;2023-05-10T08:28:46;20.10;70.30
2130;DHT22;1071;52.544;13.374;2023-05-10T08:31:14;20.10;70.00
2130;DHT22;1071;52.544;13.374;2023-05-10T08:33:42;19.90;69.50
2130;DHT22;1071;52.544;13.374;2023-05-10T08:36:10;19.80;69.80
2130;DHT22;1071;52.544;13.374;2023-05-10T08:38:39;19.90;70.40
2130;DHT22;1071;52.544;13.374;2023-05-10T08:41:08;20.00;70.20
2130;DHT22;1071;52.544;13.374;2023-05-10T08:43:36;20.00;70.20
2130;DHT22;1071;52.544;13.374;2023-05-10T08:46:07;20.10;70.50
2130;DHT22;1071;52.544;13.374;2023-05-10T08:48:36;20.20;70.70
2130;DHT22;1071;52.544;13.374;2023-05-10T08:51:04;20.20;70.80
2130;DHT22;1071;52.544;13.374;2023-05-10T08:53:33;20.20;70.20
2130;DHT22;1071;52.544;13.374;2023-05-10T08:56:03;20.20;69.80
2130;DHT22;1071;52.544;13.374;2023-05-10T08:58:31;20.10;69.30
2130;DHT22;1071;52.544;13.374;2023-05-10T09:00:59;20.10;69.40
2130;DHT22;1071;52.544;13.374;2023-05-10T09:03:27;20.10;69.50
2130;DHT22;1071;52.544;13.374;2023-05-10T09:05:54;20.10;69.90
2130;DHT22;1071;52.544;13.374;2023-05-10T09:08:23;20.20;70.20
2130;DHT22;1071;52.544;13.374;2023-05-10T09:10:53;20.10;70.00
2130;DHT22;1071;52.544;13.374;2023-05-10T09:13:22;20.10;69.80
2130;DHT22;1071;52.544;13.374;2023-05-10T09:15:49;20.20;70.40
2130;DHT22;1071;52.544;13.374;2023-05-10T09:18:17;20.20;70.80
2130;DHT22;1071;52.544;13.374;2023-05-10T09:20:44;20.30;71.00
2130;DHT22;1071;52.544;13.374;2023-05-10T09:23:11;20.30;69.70
2130;DHT22;1071;52.544;13.374;2023-05-10T09:25:38;20.40;69.60
2130;DHT22;1071;52.544;13.374;2023-05-10T09:28:09;20.50;69.70
2130;DHT22;1071;52.544;13.374;2023-05-10T09:30:36;20.50;68.90
2130;DHT22;1071;52.544;13.374;2023-05-10T09:33:04;20.50;69.20
2130;DHT22;1071;52.544;13.374;2023-05-10T09:35:33;20.40;70.00
2130;DHT22;1071;52.544;13.374;2023-05-10T09:38:03;20.40;68.90
2130;DHT22;1071;52.544;13.374;2023-05-10T09:40:31;20.30;69.60
2130;DHT22;1071;52.544;13.374;2023-05-10T09:42:59;20.40;69.90
2130;DHT22;1071;52.544;13.374;2023-05-10T09:45:29;20.40;69.00
2130;DHT22;1071;52.544;13.374;2023-05-10T09:47:57;20.40;69.30
2130;DHT22;1071;52.544;13.374;2023-05-10T09:50:27;20.50;69.20
2130;DHT22;1071;52.544;13.374;2023-05-10T09:52:57;20.60;69.20
2130;DHT22;1071;52.544;13.374;2023-05-10T09:55:26;20.60;69.10
2130;DHT22;1071;52.544;13.374;2023-05-10T09:58:08;20.70;69.00
2130;DHT22;1071;52.544;13.374;2023-05-10T10:00:38;20.80;69.50
2130;DHT22;1071;52.544;13.374;2023-05-10T10:03:05;20.80;69.20
2130;DHT22;1071;52.544;13.374;2023-05-10T10:05:34;20.80;68.70
2130;DHT22;1071;52.544;13.374;2023-05-10T10:08:03;20.90;68.60
2130;DHT22;1071;52.544;13.374;2023-05-10T10:10:32;21.10;68.40
2130;DHT22;1071;52.544;13.374;2023-05-10T10:12:59;21.10;67.60
2130;DHT22;1071;52.544;13.374;2023-05-10T10:15:29;21.10;67.60
2130;DHT22;1071;52.544;13.374;2023-05-10T10:17:57;21.10;67.30
2130;DHT22;1071;52.544;13.374;2023-05-10T10:20:25;21.10;67.30
2130;DHT22;1071;52.544;13.374;2023-05-10T10:22:52;21.20;67.20
2130;DHT22;1071;52.544;13.374;2023-05-10T10:25:20;21.20;67.60
2130;DHT22;1071;52.544;13.374;2023-05-10T10:30:47;21.20;66.60
2130;DHT22;1071;52.544;13.374;2023-05-10T10:33:36;21.20;66.90
2130;DHT22;1071;52.544;13.374;2023-05-10T10:36:06;21.20;66.80
2130;DHT22;1071;52.544;13.374;2023-05-10T10:38:38;21.20;66.70
2130;DHT22;1071;52.544;13.374;2023-05-10T10:41:30;21.20;66.30
2130;DHT22;1071;52.544;13.374;2023-05-10T10:44:26;21.30;66.10
2130;DHT22;1071;52.544;13.374;2023-05-10T10:47:02;21.40;66.30
2130;DHT22;1071;52.544;13.374;2023-05-10T10:49:33;21.30;66.00
2130;DHT22;1071;52.544;13.374;2023-05-10T10:52:24;21.40;66.10
2130;DHT22;1071;52.544;13.374;2023-05-10T10:54:58;21.50;65.20
2130;DHT22;1071;52.544;13.374;2023-05-10T10:57:26;21.50;64.90
2130;DHT22;1071;52.544;13.374;2023-05-10T11:00:18;21.60;65.00
2130;DHT22;1071;52.544;13.374;2023-05-10T11:02:45;21.60;64.50
2130;DHT22;1071;52.544;13.374;2023-05-10T11:05:45;21.80;65.00
2130;DHT22;1071;52.544;13.374;2023-05-10T11:08:26;21.80;66.40
2130;DHT22;1071;52.544;13.374;2023-05-10T11:11:03;21.90;66.40
2130;DHT22;1071;52.544;13.374;2023-05-10T11:13:34;22.00;65.40
2130;DHT22;1071;52.544;13.374;2023-05-10T11:16:19;21.90;64.60
2130;DHT22;1071;52.544;13.374;2023-05-10T11:18:58;22.00;65.30
2130;DHT22;1071;52.544;13.374;2023-05-10T11:21:29;22.10;65.20
2130;DHT22;1071;52.544;13.374;2023-05-10T11:23:57;22.20;65.30
2130;DHT22;1071;52.544;13.374;2023-05-10T11:26:25;22.20;65.70
2130;DHT22;1071;52.544;13.374;2023-05-10T11:28:54;22.30;65.40
2130;DHT22;1071;52.544;13.374;2023-05-10T11:31:22;22.40;65.00
2130;DHT22;1071;52.544;13.374;2023-05-10T11:33:53;22.50;65.00
2130;DHT22;1071;52.544;13.374;2023-05-10T11:36:23;22.50;63.50
2130;DHT22;1071;52.544;13.374;2023-05-10T11:38:56;22.60;63.60
2130;DHT22;1071;52.544;13.374;2023-05-10T11:41:29;22.60;63.20
2130;DHT22;1071;52.544;13.374;2023-05-10T11:44:00;22.60;62.80
2130;DHT22;1071;52.544;13.374;2023-05-10T11:46:28;22.70;62.50
2130;DHT22;1071;52.544;13.374;2023-05-10T11:48:59;22.60;61.80
2130;DHT22;1071;52.544;13.374;2023-05-10T11:51:32;22.60;61.70
2130;DHT22;1071;52.544;13.374;2023-05-10T11:54:05;22.60;62.00
2130;DHT22;1071;52.544;13.374;2023-05-10T11:56:33;22.60;62.60
2130;DHT22;1071;52.544;13.374;2023-05-10T11:59:04;22.60;62.70
2130;DHT22;1071;52.544;13.374;2023-05-10T12:01:31;22.70;63.20
2130;DHT22;1071;52.544;13.374;2023-05-10T12:03:59;22.70;63.30
2130;DHT22;1071;52.544;13.374;2023-05-10T12:06:28;22.70;62.90
2130;DHT22;1071;52.544;13.374;2023-05-10T12:09:02;22.70;61.20
2130;DHT22;1071;52.544;13.374;2023-05-10T12:11:32;22.70;60.50
2130;DHT22;1071;52.544;13.374;2023-05-10T12:13:59;22.70;60.70
2130;DHT22;1071;52.544;13.374;2023-05-10T12:16:28;22.70;60.90
2130;DHT22;1071;52.544;13.374;2023-05-10T12:18:57;22.70;60.90
2130;DHT22;1071;52.544;13.374;2023-05-10T12:21:25;22.60;60.80
2130;DHT22;1071;52.544;13.374;2023-05-10T12:23:53;22.70;61.20
2130;DHT22;1071;52.544;13.374;2023-05-10T12:26:23;22.70;60.80
2130;DHT22;1071;52.544;13.374;2023-05-10T12:28:52;22.80;60.40
2130;DHT22;1071;52.544;13.374;2023-05-10T12:31:21;22.80;59.90
2130;DHT22;1071;52.544;13.374;2023-05-10T12:33:48;22.80;59.10
2130;DHT22;1071;52.544;13.374;2023-05-10T12:36:16;22.80;59.20
2130;DHT22;1071;52.544;13.374;2023-05-10T12:38:50;22.80;59.20
2130;DHT22;1071;52.544;13.374;2023-05-10T12:41:18;22.90;59.50
2130;DHT22;1071;52.544;13.374;2023-05-10T12:44:09;22.90;59.90
2130;DHT22;1071;52.544;13.374;2023-05-10T12:46:36;23.00;60.00
2130;DHT22;1071;52.544;13.374;2023-05-10T12:49:07;23.00;60.60
2130;DHT22;1071;52.544;13.374;2023-05-10T12:51:34;23.00;59.90
2130;DHT22;1071;52.544;13.374;2023-05-10T12:54:02;23.00;60.20
2130;DHT22;1071;52.544;13.374;2023-05-10T12:56:30;23.00;60.30
2130;DHT22;1071;52.544;13.374;2023-05-10T12:59:05;23.00;60.10
2130;DHT22;1071;52.544;13.374;2023-05-10T13:01:43;23.00;59.90
2130;DHT22;1071;52.544;13.374;2023-05-10T13:04:12;23.00;60.60
2130;DHT22;1071;52.544;13.374;2023-05-10T13:06:40;23.00;61.20
2130;DHT22;1071;52.544;13.374;2023-05-10T13:09:07;23.00;59.90
2130;DHT22;1071;52.544;13.374;2023-05-10T13:11:35;23.00;59.10
2130;DHT22;1071;52.544;13.374;2023-05-10T13:14:02;23.00;59.20
2130;DHT22;1071;52.544;13.374;2023-05-10T13:16:34;23.00;58.20
2130;DHT22;1071;52.544;13.374;2023-05-10T13:19:04;23.00;57.80
2130;DHT22;1071;52.544;13.374;2023-05-10T13:21:31;23.00;58.20
2130;DHT22;1071;52.544;13.374;2023-05-10T13:24:01;23.00;58.90
2130;DHT22;1071;52.544;13.374;2023-05-10T13:26:28;23.00;59.80
2130;DHT22;1071;52.544;13.374;2023-05-10T13:28:57;23.10;59.80
2130;DHT22;1071;52.544;13.374;2023-05-10T13:31:33;23.00;57.70
2130;DHT22;1071;52.544;13.374;2023-05-10T13:34:08;23.00;57.80
2130;DHT22;1071;52.544;13.374;2023-05-10T13:36:35;23.00;57.50
2130;DHT22;1071;52.544;13.374;2023-05-10T13:39:11;23.00;58.20
2130;DHT22;1071;52.544;13.374;2023-05-10T13:41:38;23.00;58.50
2130;DHT22;1071;52.544;13.374;2023-05-10T13:44:07;23.00;58.70
2130;DHT22;1071;52.544;13.374;2023-05-10T13:46:35;23.00;58.80
2130;DHT22;1071;52.544;13.374;2023-05-10T13:49:08;23.00;58.90
2130;DHT22;1071;52.544;13.374;2023-05-10T13:51:46;23.10;59.00
2130;DHT22;1071;52.544;13.374;2023-05-10T13:54:24;23.10;58.80
2130;DHT22;1071;52.544;13.374;2023-05-10T13:56:54;23.20;58.90
2130;DHT22;1071;52.544;13.374;2023-05-10T13:59:25;23.20;58.90
2130;DHT22;1071;52.544;13.374;2023-05-10T14:04:48;23.30;58.70
2130;DHT22;1071;52.544;13.374;2023-05-10T14:07:15;23.20;57.80
2130;DHT22;1071;52.544;13.374;2023-05-10T14:09:44;23.20;57.30
2130;DHT22;1071;52.544;13.374;2023-05-10T14:12:24;23.20;57.20
2130;DHT22;1071;52.544;13.374;2023-05-10T14:14:51;23.20;57.10
2130;DHT22;1071;52.544;13.374;2023-05-10T14:17:18;23.20;55.80
2130;DHT22;1071;52.544;13.374;2023-05-10T14:19:47;23.20;56.10
2130;DHT22;1071;52.544;13.374;2023-05-10T14:22:14;23.20;56.10
2130;DHT22;1071;52.544;13.374;2023-05-10T14:24:50;23.20;56.50
2130;DHT22;1071;52.544;13.374;2023-05-10T14:27:23;23.20;56.60
2130;DHT22;1071;52.544;13.374;2023-05-10T14:29:50;23.20;56.90
2130;DHT22;1071;52.544;13.374;2023-05-10T14:32:18;23.20;56.90
2130;DHT22;1071;52.544;13.374;2023-05-10T14:34:47;23.20;57.00
2130;DHT22;1071;52.544;13.374;2023-05-10T14:37:14;23.20;55.80
2130;DHT22;1071;52.544;13.374;2023-05-10T14:39:43;23.20;55.20
2130;DHT22;1071;52.544;13.374;2023-05-10T14:42:11;23.10;55.50
2130;DHT22;1071;52.544;13.374;2023-05-10T14:44:38;23.20;55.80
2130;DHT22;1071;52.544;13.374;2023-05-10T14:47:09;23.10;53.90
2130;DHT22;1071;52.544;13.374;2023-05-10T14:49:37;23.10;54.30
2130;DHT22;1071;52.544;13.374;2023-05-10T14:52:07;23.10;54.20
2130;DHT22;1071;52.544;13.374;2023-05-10T14:54:43;23.10;54.30
2130;DHT22;1071;52.544;13.374;2023-05-10T14:57:13;23.10;55.30
2130;DHT22;1071;52.544;13.374;2023-05-10T14:59:49;23.10;55.50
2130;DHT22;1071;52.544;13.374;2023-05-10T15:02:16;23.10;55.80
2130;DHT22;1071;52.544;13.374;2023-05-10T15:04:46;23.00;54.70
2130;DHT22;1071;52.544;13.374;2023-05-10T15:07:18;23.00;55.20
2130;DHT22;1071;52.544;13.374;2023-05-10T15:09:51;23.00;55.30
2130;DHT22;1071;52.544;13.374;2023-05-10T15:12:19;23.00;55.10
2130;DHT22;1071;52.544;13.374;2023-05-10T15:14:46;23.00;55.70
2130;DHT22;1071;52.544;13.374;2023-05-10T15:17:14;22.90;55.20
2130;DHT22;1071;52.544;13.374;2023-05-10T15:19:41;23.00;55.30
2130;DHT22;1071;52.544;13.374;2023-05-10T15:22:08;22.90;55.70
2130;DHT22;1071;52.544;13.374;2023-05-10T15:24:37;23.00;55.30
2130;DHT22;1071;52.544;13.374;2023-05-10T15:27:12;22.90;55.00
2130;DHT22;1071;52.544;13.374;2023-05-10T15:29:44;22.90;54.80
2130;DHT22;1071;52.544;13.374;2023-05-10T15:32:17;23.00;55.70
2130;DHT22;1071;52.544;13.374;2023-05-10T15:34:44;22.90;55.70
2130;DHT22;1071;52.544;13.374;2023-05-10T15:37:29;22.80;55.90
2130;DHT22;1071;52.544;13.374;2023-05-10T15:40:11;22.80;56.00
2130;DHT22;1071;52.544;13.374;2023-05-10T15:42:52;22.80;56.20
2130;DHT22;1071;52.544;13.374;2023-05-10T15:45:22;22.80;56.30
2130;DHT22;1071;52.544;13.374;2023-05-10T15:47:53;22.70;56.00
2130;DHT22;1071;52.544;13.374;2023-05-10T15:50:25;22.70;55.80
2130;DHT22;1071;52.544;13.374;2023-05-10T15:53:01;22.70;56.20
2130;DHT22;1071;52.544;13.374;2023-05-10T15:55:32;22.70;56.30
2130;DHT22;1071;52.544;13.374;2023-05-10T15:57:59;22.60;56.80
2130;DHT22;1071;52.544;13.374;2023-05-10T16:00:26;22.60;57.00
2130;DHT22;1071;52.544;13.374;2023-05-10T16:02:55;22.60;57.20
2130;DHT22;1071;52.544;13.374;2023-05-10T16:05:22;22.50;57.40
2130;DHT22;1071;52.544;13.374;2023-05-10T16:07:52;22.50;57.70
2130;DHT22;1071;52.544;13.374;2023-05-10T16:10:19;22.50;57.90
2130;DHT22;1071;52.544;13.374;2023-05-10T16:12:48;22.50;57.90